sensor_id;sensor_type;location;lat;lon;timestamp;P1;durP1;ratioP1;P2;durP2;ratioP2
47161;SDS011;32921;53.256;8.198;2022-07-25T00:00:16;10.90;;;8.52;;
47161;SDS011;32921;53.256;8.198;2022-07-25T00:02:42;11.40;;;8.98;;
47161;SDS011;32921;53.256;8.198;2022-07-25T00:05:08;15.65;;;9.00;;
47161;SDS011;32921;53.256;8.198;2022-07-25T00:07:33;11.55;;;8.52;;
47161;SDS011;32921;53.256;8.198;2022-07-25T00:09:59;12.48;;;9.10;;
47161;SDS011;32921;53.256;8.198;2022-07-25T00:12:24;10.77;;;9.07;;
47161;SDS011;32921;53.256;8.198;2022-07-25T00:14:50;11.75;;;8.60;;
47161;SDS011;32921;53.256;8.198;2022-07-25T00:17:16;13.65;;;9.25;;
47161;SDS011;32921;53.256;8.198;2022-07-25T00:19:41;10.57;;;9.13;;
47161;SDS011;32921;53.256;8.198;2022-07-25T00:22:07;11.40;;;9.10;;
47161;SDS011;32921;53.256;8.198;2022-07-25T00:24:33;13.10;;;9.30;;
47161;SDS011;32921;53.256;8.198;2022-07-25T00:26:59;13.02;;;9.65;;
47161;SDS011;32921;53.256;8.198;2022-07-25T00:29:26;11.45;;;9.73;;
47161;SDS011;32921;53.256;8.198;2022-07-25T00:31:52;13.75;;;9.73;;
47161;SDS011;32921;53.256;8.198;2022-07-25T00:34:18;14.20;;;9.88;;
47161;SDS011;32921;53.256;8.198;2022-07-25T00:36:43;13.27;;;9.65;;
47161;SDS011;32921;53.256;8.198;2022-07-25T00:39:09;13.68;;;10.63;;
47161;SDS011;32921;53.256;8.198;2022-07-25T00:41:34;15.52;;;10.35;;
47161;SDS011;32921;53.256;8.198;2022-07-25T00:44:00;13.23;;;10.57;;
47161;SDS011;32921;53.256;8.198;2022-07-25T00:46:26;12.93;;;9.52;;
47161;SDS011;32921;53.256;8.198;2022-07-25T00:48:51;12.82;;;10.43;;
47161;SDS011;32921;53.256;8.198;2022-07-25T00:51:17;11.57;;;9.85;;
47161;SDS011;32921;53.256;8.198;2022-07-25T00:53:42;11.68;;;10.02;;
47161;SDS011;32921;53.256;8.198;2022-07-25T00:56:09;12.13;;;10.35;;
47161;SDS011;32921;53.256;8.198;2022-07-25T00:58:35;12.43;;;10.05;;
47161;SDS011;32921;53.256;8.198;2022-07-25T01:01:01;13.00;;;10.50;;
47161;SDS011;32921;53.256;8.198;2022-07-25T01:03:28;12.80;;;10.60;;
47161;SDS011;32921;53.256;8.198;2022-07-25T01:05:53;14.02;;;10.82;;
47161;SDS011;32921;53.256;8.198;2022-07-25T01:08:19;16.63;;;10.85;;
47161;SDS011;32921;53.256;8.198;2022-07-25T01:10:46;13.65;;;10.52;;
47161;SDS011;32921;53.256;8.198;2022-07-25T01:13:13;13.30;;;10.43;;
47161;SDS011;32921;53.256;8.198;2022-07-25T01:15:38;16.08;;;10.60;;
47161;SDS011;32921;53.256;8.198;2022-07-25T01:18:05;14.70;;;11.23;;
47161;SDS011;32921;53.256;8.198;2022-07-25T01:20:31;16.13;;;10.65;;
47161;SDS011;32921;53.256;8.198;2022-07-25T01:22:57;12.63;;;11.00;;
47161;SDS011;32921;53.256;8.198;2022-07-25T01:25:23;14.98;;;11.10;;
47161;SDS011;32921;53.256;8.198;2022-07-25T01:27:49;14.85;;;10.68;;
47161;SDS011;32921;53.256;8.198;2022-07-25T01:30:16;15.52;;;10.45;;
47161;SDS011;32921;53.256;8.198;2022-07-25T01:32:42;13.85;;;11.38;;
47161;SDS011;32921;53.256;8.198;2022-07-25T01:35:09;14.55;;;11.40;;
47161;SDS011;32921;53.256;8.198;2022-07-25T01:37:37;15.68;;;10.88;;
47161;SDS011;32921;53.256;8.198;2022-07-25T01:40:03;15.18;;;10.93;;
47161;SDS011;32921;53.256;8.198;2022-07-25T01:42:29;17.00;;;11.68;;
47161;SDS011;32921;53.256;8.198;2022-07-25T01:44:55;12.60;;;11.00;;
47161;SDS011;32921;53.256;8.198;2022-07-25T01:47:20;15.00;;;11.52;;
47161;SDS011;32921;53.256;8.198;2022-07-25T01:49:46;15.50;;;11.55;;
47161;SDS011;32921;53.256;8.198;2022-07-25T01:52:12;14.63;;;11.95;;
47161;SDS011;32921;53.256;8.198;2022-07-25T01:54:38;13.57;;;11.20;;
47161;SDS011;32921;53.256;8.198;2022-07-25T01:57:05;13.40;;;11.30;;
47161;SDS011;32921;53.256;8.198;2022-07-25T01:59:31;16.80;;;12.15;;
47161;SDS011;32921;53.256;8.198;2022-07-25T02:01:57;14.52;;;11.52;;
47161;SDS011;32921;53.256;8.198;2022-07-25T02:04:23;13.63;;;11.38;;
47161;SDS011;32921;53.256;8.198;2022-07-25T02:06:48;13.75;;;11.15;;
47161;SDS011;32921;53.256;8.198;2022-07-25T02:09:14;16.60;;;11.55;;
47161;SDS011;32921;53.256;8.198;2022-07-25T02:11:40;13.88;;;10.90;;
47161;SDS011;32921;53.256;8.198;2022-07-25T02:14:05;15.00;;;10.50;;
47161;SDS011;32921;53.256;8.198;2022-07-25T02:16:31;15.63;;;10.85;;
47161;SDS011;32921;53.256;8.198;2022-07-25T02:18:57;12.32;;;10.05;;
47161;SDS011;32921;53.256;8.198;2022-07-25T02:21:22;11.63;;;9.35;;
47161;SDS011;32921;53.256;8.198;2022-07-25T02:23:48;15.02;;;10.43;;
47161;SDS011;32921;53.256;8.198;2022-07-25T02:26:14;13.50;;;10.38;;
47161;SDS011;32921;53.256;8.198;2022-07-25T02:28:40;12.73;;;10.32;;
47161;SDS011;32921;53.256;8.198;2022-07-25T02:31:05;13.95;;;10.70;;
47161;SDS011;32921;53.256;8.198;2022-07-25T02:33:32;15.45;;;10.63;;
47161;SDS011;32921;53.256;8.198;2022-07-25T02:35:57;16.33;;;10.18;;
47161;SDS011;32921;53.256;8.198;2022-07-25T02:38:23;12.43;;;10.38;;
47161;SDS011;32921;53.256;8.198;2022-07-25T02:40:49;13.88;;;10.23;;
47161;SDS011;32921;53.256;8.198;2022-07-25T02:43:16;13.27;;;10.00;;
47161;SDS011;32921;53.256;8.198;2022-07-25T02:45:42;11.90;;;10.07;;
47161;SDS011;32921;53.256;8.198;2022-07-25T02:48:08;11.20;;;9.65;;
47161;SDS011;32921;53.256;8.198;2022-07-25T02:50:34;14.75;;;10.52;;
47161;SDS011;32921;53.256;8.198;2022-07-25T02:53:00;11.20;;;9.73;;
47161;SDS011;32921;53.256;8.198;2022-07-25T02:55:26;14.02;;;9.45;;
47161;SDS011;32921;53.256;8.198;2022-07-25T02:57:51;13.70;;;10.15;;
47161;SDS011;32921;53.256;8.198;2022-07-25T03:00:17;15.57;;;9.77;;
47161;SDS011;32921;53.256;8.198;2022-07-25T03:02:43;14.20;;;10.77;;
47161;SDS011;32921;53.256;8.198;2022-07-25T03:05:10;13.48;;;9.38;;
47161;SDS011;32921;53.256;8.198;2022-07-25T03:07:40;13.52;;;9.40;;
47161;SDS011;32921;53.256;8.198;2022-07-25T03:10:06;11.95;;;9.82;;
47161;SDS011;32921;53.256;8.198;2022-07-25T03:12:34;12.35;;;9.60;;
47161;SDS011;32921;53.256;8.198;2022-07-25T03:15:00;11.32;;;9.52;;
47161;SDS011;32921;53.256;8.198;2022-07-25T03:17:26;12.80;;;9.65;;
47161;SDS011;32921;53.256;8.198;2022-07-25T03:19:52;14.65;;;9.95;;
47161;SDS011;32921;53.256;8.198;2022-07-25T03:22:19;13.07;;;9.73;;
47161;SDS011;32921;53.256;8.198;2022-07-25T03:24:45;15.35;;;9.88;;
47161;SDS011;32921;53.256;8.198;2022-07-25T03:27:10;14.05;;;9.82;;
47161;SDS011;32921;53.256;8.198;2022-07-25T03:29:36;12.98;;;9.15;;
47161;SDS011;32921;53.256;8.198;2022-07-25T03:32:02;10.90;;;9.20;;
47161;SDS011;32921;53.256;8.198;2022-07-25T03:34:28;14.07;;;9.52;;
47161;SDS011;32921;53.256;8.198;2022-07-25T03:36:54;18.50;;;9.60;;
47161;SDS011;32921;53.256;8.198;2022-07-25T03:39:19;13.68;;;9.80;;
47161;SDS011;32921;53.256;8.198;2022-07-25T03:41:45;14.43;;;9.77;;
47161;SDS011;32921;53.256;8.198;2022-07-25T03:44:11;12.65;;;9.55;;
47161;SDS011;32921;53.256;8.198;2022-07-25T03:46:37;12.95;;;9.50;;
47161;SDS011;32921;53.256;8.198;2022-07-25T03:49:03;11.90;;;9.30;;
47161;SDS011;32921;53.256;8.198;2022-07-25T03:51:29;11.18;;;8.75;;
47161;SDS011;32921;53.256;8.198;2022-07-25T03:53:55;13.20;;;9.93;;
47161;SDS011;32921;53.256;8.198;2022-07-25T03:56:43;10.85;;;9.02;;
47161;SDS011;32921;53.256;8.198;2022-07-25T03:59:11;11.68;;;9.35;;
47161;SDS011;32921;53.256;8.198;2022-07-25T04:01:39;11.48;;;9.45;;
47161;SDS011;32921;53.256;8.198;2022-07-25T04:04:06;13.85;;;10.48;;
47161;SDS011;32921;53.256;8.198;2022-07-25T04:06:31;11.05;;;9.65;;
47161;SDS011;32921;53.256;8.198;2022-07-25T04:08:58;13.50;;;9.70;;
47161;SDS011;32921;53.256;8.198;2022-07-25T04:11:23;13.43;;;9.80;;
47161;SDS011;32921;53.256;8.198;2022-07-25T04:13:49;11.23;;;9.85;;
47161;SDS011;32921;53.256;8.198;2022-07-25T04:16:15;11.20;;;9.45;;
47161;SDS011;32921;53.256;8.198;2022-07-25T04:18:41;12.90;;;9.27;;
47161;SDS011;32921;53.256;8.198;2022-07-25T04:21:07;12.20;;;9.45;;
47161;SDS011;32921;53.256;8.198;2022-07-25T04:23:34;12.65;;;9.43;;
47161;SDS011;32921;53.256;8.198;2022-07-25T04:26:00;13.82;;;9.40;;
47161;SDS011;32921;53.256;8.198;2022-07-25T04:28:25;13.43;;;9.52;;
47161;SDS011;32921;53.256;8.198;2022-07-25T04:30:51;13.40;;;8.75;;
47161;SDS011;32921;53.256;8.198;2022-07-25T04:33:17;14.27;;;9.55;;
47161;SDS011;32921;53.256;8.198;2022-07-25T04:35:44;11.25;;;8.63;;
47161;SDS011;32921;53.256;8.198;2022-07-25T04:38:10;11.05;;;8.52;;
47161;SDS011;32921;53.256;8.198;2022-07-25T04:40:35;11.65;;;8.32;;
47161;SDS011;32921;53.256;8.198;2022-07-25T04:43:02;10.43;;;8.55;;
47161;SDS011;32921;53.256;8.198;2022-07-25T04:45:28;13.95;;;8.80;;
47161;SDS011;32921;53.256;8.198;2022-07-25T04:47:54;9.85;;;8.32;;
47161;SDS011;32921;53.256;8.198;2022-07-25T04:50:26;10.82;;;8.00;;
47161;SDS011;32921;53.256;8.198;2022-07-25T04:52:52;16.10;;;8.45;;
47161;SDS011;32921;53.256;8.198;2022-07-25T04:55:18;10.65;;;8.00;;
47161;SDS011;32921;53.256;8.198;2022-07-25T04:57:44;9.75;;;7.88;;
47161;SDS011;32921;53.256;8.198;2022-07-25T05:00:11;14.15;;;8.07;;
47161;SDS011;32921;53.256;8.198;2022-07-25T05:02:37;11.25;;;8.07;;
47161;SDS011;32921;53.256;8.198;2022-07-25T05:05:04;14.18;;;7.82;;
47161;SDS011;32921;53.256;8.198;2022-07-25T05:07:30;12.32;;;8.40;;
47161;SDS011;32921;53.256;8.198;2022-07-25T05:09:55;9.90;;;7.45;;
47161;SDS011;32921;53.256;8.198;2022-07-25T05:12:21;13.23;;;7.80;;
47161;SDS011;32921;53.256;8.198;2022-07-25T05:14:47;10.32;;;7.70;;
47161;SDS011;32921;53.256;8.198;2022-07-25T05:17:13;10.77;;;7.57;;
47161;SDS011;32921;53.256;8.198;2022-07-25T05:19:38;11.20;;;7.30;;
47161;SDS011;32921;53.256;8.198;2022-07-25T05:22:04;11.88;;;6.90;;
47161;SDS011;32921;53.256;8.198;2022-07-25T05:24:35;11.32;;;7.22;;
47161;SDS011;32921;53.256;8.198;2022-07-25T05:27:02;9.60;;;6.80;;
47161;SDS011;32921;53.256;8.198;2022-07-25T05:29:28;12.20;;;6.93;;
47161;SDS011;32921;53.256;8.198;2022-07-25T05:31:54;10.05;;;6.75;;
47161;SDS011;32921;53.256;8.198;2022-07-25T05:34:20;12.90;;;6.63;;
47161;SDS011;32921;53.256;8.198;2022-07-25T05:36:46;10.82;;;6.40;;
47161;SDS011;32921;53.256;8.198;2022-07-25T05:39:11;11.60;;;6.07;;
47161;SDS011;32921;53.256;8.198;2022-07-25T05:41:37;9.75;;;6.47;;
47161;SDS011;32921;53.256;8.198;2022-07-25T05:44:02;10.07;;;6.72;;
47161;SDS011;32921;53.256;8.198;2022-07-25T05:46:30;11.07;;;6.47;;
47161;SDS011;32921;53.256;8.198;2022-07-25T05:48:56;9.23;;;6.55;;
47161;SDS011;32921;53.256;8.198;2022-07-25T05:51:22;9.38;;;7.00;;
47161;SDS011;32921;53.256;8.198;2022-07-25T05:53:48;9.95;;;6.60;;
47161;SDS011;32921;53.256;8.198;2022-07-25T05:56:13;9.75;;;6.47;;
47161;SDS011;32921;53.256;8.198;2022-07-25T05:58:39;9.65;;;6.72;;
47161;SDS011;32921;53.256;8.198;2022-07-25T06:01:14;8.52;;;6.30;;
47161;SDS011;32921;53.256;8.198;2022-07-25T06:03:40;11.98;;;6.88;;
47161;SDS011;32921;53.256;8.198;2022-07-25T06:06:06;12.38;;;6.70;;
47161;SDS011;32921;53.256;8.198;2022-07-25T06:08:35;12.73;;;6.90;;
47161;SDS011;32921;53.256;8.198;2022-07-25T06:11:02;11.13;;;6.95;;
47161;SDS011;32921;53.256;8.198;2022-07-25T06:13:28;10.15;;;6.90;;
47161;SDS011;32921;53.256;8.198;2022-07-25T06:15:55;9.35;;;6.63;;
47161;SDS011;32921;53.256;8.198;2022-07-25T06:18:21;9.18;;;6.60;;
47161;SDS011;32921;53.256;8.198;2022-07-25T06:20:47;10.00;;;6.97;;
47161;SDS011;32921;53.256;8.198;2022-07-25T06:23:12;10.82;;;6.22;;
47161;SDS011;32921;53.256;8.198;2022-07-25T06:25:38;10.52;;;6.55;;
47161;SDS011;32921;53.256;8.198;2022-07-25T06:28:04;12.20;;;6.50;;
47161;SDS011;32921;53.256;8.198;2022-07-25T06:30:30;13.35;;;6.50;;
47161;SDS011;32921;53.256;8.198;2022-07-25T06:32:55;9.52;;;6.50;;
47161;SDS011;32921;53.256;8.198;2022-07-25T06:35:21;11.43;;;6.32;;
47161;SDS011;32921;53.256;8.198;2022-07-25T06:37:48;8.95;;;6.47;;
47161;SDS011;32921;53.256;8.198;2022-07-25T06:40:13;10.85;;;6.72;;
47161;SDS011;32921;53.256;8.198;2022-07-25T06:42:39;11.73;;;6.43;;
47161;SDS011;32921;53.256;8.198;2022-07-25T06:45:10;10.85;;;6.90;;
47161;SDS011;32921;53.256;8.198;2022-07-25T06:47:37;11.68;;;6.47;;
47161;SDS011;32921;53.256;8.198;2022-07-25T06:50:04;12.02;;;6.05;;
47161;SDS011;32921;53.256;8.198;2022-07-25T06:52:30;10.35;;;6.90;;
47161;SDS011;32921;53.256;8.198;2022-07-25T06:54:56;10.90;;;6.85;;
47161;SDS011;32921;53.256;8.198;2022-07-25T06:57:22;8.82;;;6.50;;
47161;SDS011;32921;53.256;8.198;2022-07-25T06:59:47;9.75;;;6.22;;
47161;SDS011;32921;53.256;8.198;2022-07-25T07:02:13;11.13;;;7.25;;
47161;SDS011;32921;53.256;8.198;2022-07-25T07:04:39;8.77;;;6.63;;
47161;SDS011;32921;53.256;8.198;2022-07-25T07:07:04;11.20;;;6.10;;
47161;SDS011;32921;53.256;8.198;2022-07-25T07:09:30;9.23;;;7.03;;
47161;SDS011;32921;53.256;8.198;2022-07-25T07:11:55;9.38;;;6.20;;
47161;SDS011;32921;53.256;8.198;2022-07-25T07:14:21;10.13;;;6.03;;
47161;SDS011;32921;53.256;8.198;2022-07-25T07:16:46;9.68;;;6.00;;
47161;SDS011;32921;53.256;8.198;2022-07-25T07:19:12;12.90;;;5.95;;
47161;SDS011;32921;53.256;8.198;2022-07-25T07:21:38;8.82;;;5.90;;
47161;SDS011;32921;53.256;8.198;2022-07-25T07:24:05;9.30;;;5.80;;
47161;SDS011;32921;53.256;8.198;2022-07-25T07:26:31;8.43;;;6.07;;
47161;SDS011;32921;53.256;8.198;2022-07-25T07:28:57;9.35;;;5.75;;
47161;SDS011;32921;53.256;8.198;2022-07-25T07:31:22;14.68;;;6.60;;
47161;SDS011;32921;53.256;8.198;2022-07-25T07:33:48;10.15;;;5.90;;
47161;SDS011;32921;53.256;8.198;2022-07-25T07:36:13;10.95;;;5.82;;
47161;SDS011;32921;53.256;8.198;2022-07-25T07:38:39;12.00;;;5.65;;
47161;SDS011;32921;53.256;8.198;2022-07-25T07:41:05;8.75;;;5.72;;
47161;SDS011;32921;53.256;8.198;2022-07-25T07:43:31;9.23;;;5.70;;
47161;SDS011;32921;53.256;8.198;2022-07-25T07:45:57;7.38;;;5.43;;
47161;SDS011;32921;53.256;8.198;2022-07-25T07:48:24;10.60;;;5.53;;
47161;SDS011;32921;53.256;8.198;2022-07-25T07:50:50;10.57;;;5.30;;
47161;SDS011;32921;53.256;8.198;2022-07-25T07:53:16;6.50;;;5.45;;
47161;SDS011;32921;53.256;8.198;2022-07-25T07:55:42;7.78;;;5.28;;
47161;SDS011;32921;53.256;8.198;2022-07-25T07:58:16;9.48;;;5.25;;
47161;SDS011;32921;53.256;8.198;2022-07-25T08:00:43;7.00;;;4.95;;
47161;SDS011;32921;53.256;8.198;2022-07-25T08:03:10;9.20;;;5.45;;
47161;SDS011;32921;53.256;8.198;2022-07-25T08:05:40;8.98;;;5.35;;
47161;SDS011;32921;53.256;8.198;2022-07-25T08:08:07;8.35;;;4.97;;
47161;SDS011;32921;53.256;8.198;2022-07-25T08:10:35;11.25;;;5.18;;
47161;SDS011;32921;53.256;8.198;2022-07-25T08:13:10;9.10;;;4.65;;
47161;SDS011;32921;53.256;8.198;2022-07-25T08:15:39;8.57;;;4.72;;
47161;SDS011;32921;53.256;8.198;2022-07-25T08:18:05;10.50;;;4.40;;
47161;SDS011;32921;53.256;8.198;2022-07-25T08:20:31;7.45;;;4.93;;
47161;SDS011;32921;53.256;8.198;2022-07-25T08:22:56;9.02;;;4.68;;
47161;SDS011;32921;53.256;8.198;2022-07-25T08:25:22;6.75;;;4.60;;
47161;SDS011;32921;53.256;8.198;2022-07-25T08:27:48;8.57;;;4.50;;
47161;SDS011;32921;53.256;8.198;2022-07-25T08:30:14;7.70;;;4.60;;
47161;SDS011;32921;53.256;8.198;2022-07-25T08:32:48;9.13;;;4.60;;
47161;SDS011;32921;53.256;8.198;2022-07-25T08:35:16;7.43;;;4.90;;
47161;SDS011;32921;53.256;8.198;2022-07-25T08:37:43;8.88;;;4.78;;
47161;SDS011;32921;53.256;8.198;2022-07-25T08:40:09;9.80;;;4.60;;
47161;SDS011;32921;53.256;8.198;2022-07-25T08:42:36;6.38;;;4.30;;
47161;SDS011;32921;53.256;8.198;2022-07-25T08:45:03;8.05;;;4.60;;
47161;SDS011;32921;53.256;8.198;2022-07-25T08:47:30;8.20;;;4.45;;
47161;SDS011;32921;53.256;8.198;2022-07-25T08:49:56;7.80;;;4.68;;
47161;SDS011;32921;53.256;8.198;2022-07-25T08:52:22;8.18;;;4.15;;
47161;SDS011;32921;53.256;8.198;2022-07-25T08:54:48;6.78;;;4.32;;
47161;SDS011;32921;53.256;8.198;2022-07-25T08:57:15;9.55;;;4.78;;
47161;SDS011;32921;53.256;8.198;2022-07-25T08:59:41;7.43;;;4.88;;
47161;SDS011;32921;53.256;8.198;2022-07-25T09:02:11;8.13;;;4.90;;
47161;SDS011;32921;53.256;8.198;2022-07-25T09:07:03;7.13;;;5.18;;
47161;SDS011;32921;53.256;8.198;2022-07-25T09:09:30;8.07;;;5.07;;
47161;SDS011;32921;53.256;8.198;2022-07-25T09:12:00;11.40;;;4.50;;
47161;SDS011;32921;53.256;8.198;2022-07-25T09:14:26;8.70;;;4.63;;
47161;SDS011;32921;53.256;8.198;2022-07-25T09:16:54;9.40;;;4.63;;
47161;SDS011;32921;53.256;8.198;2022-07-25T09:19:21;6.40;;;4.80;;
47161;SDS011;32921;53.256;8.198;2022-07-25T09:22:04;9.40;;;4.45;;
47161;SDS011;32921;53.256;8.198;2022-07-25T09:24:32;8.05;;;4.57;;
47161;SDS011;32921;53.256;8.198;2022-07-25T09:27:07;7.32;;;4.60;;
47161;SDS011;32921;53.256;8.198;2022-07-25T09:29:34;9.40;;;5.00;;
47161;SDS011;32921;53.256;8.198;2022-07-25T09:32:01;7.00;;;4.50;;
47161;SDS011;32921;53.256;8.198;2022-07-25T09:34:38;8.75;;;4.60;;
47161;SDS011;32921;53.256;8.198;2022-07-25T09:37:06;6.88;;;4.10;;
47161;SDS011;32921;53.256;8.198;2022-07-25T09:39:41;10.67;;;4.80;;
47161;SDS011;32921;53.256;8.198;2022-07-25T09:42:19;7.00;;;4.53;;
47161;SDS011;32921;53.256;8.198;2022-07-25T09:47:27;6.72;;;4.70;;
47161;SDS011;32921;53.256;8.198;2022-07-25T09:49:55;14.32;;;4.80;;
47161;SDS011;32921;53.256;8.198;2022-07-25T09:52:21;7.43;;;5.30;;
47161;SDS011;32921;53.256;8.198;2022-07-25T09:54:47;10.20;;;4.65;;
47161;SDS011;32921;53.256;8.198;2022-07-25T09:57:12;8.35;;;4.68;;
47161;SDS011;32921;53.256;8.198;2022-07-25T09:59:38;6.82;;;4.40;;
47161;SDS011;32921;53.256;8.198;2022-07-25T10:02:17;9.40;;;4.70;;
47161;SDS011;32921;53.256;8.198;2022-07-25T10:04:55;8.48;;;4.70;;
47161;SDS011;32921;53.256;8.198;2022-07-25T10:07:32;8.23;;;4.68;;
47161;SDS011;32921;53.256;8.198;2022-07-25T10:10:02;7.25;;;4.90;;
47161;SDS011;32921;53.256;8.198;2022-07-25T10:12:29;8.20;;;5.00;;
47161;SDS011;32921;53.256;8.198;2022-07-25T10:15:08;7.40;;;4.75;;
47161;SDS011;32921;53.256;8.198;2022-07-25T10:17:36;9.05;;;4.93;;
47161;SDS011;32921;53.256;8.198;2022-07-25T10:20:03;8.27;;;4.90;;
47161;SDS011;32921;53.256;8.198;2022-07-25T10:22:40;6.85;;;4.90;;
47161;SDS011;32921;53.256;8.198;2022-07-25T10:25:13;12.70;;;5.30;;
47161;SDS011;32921;53.256;8.198;2022-07-25T10:27:43;10.18;;;4.70;;
47161;SDS011;32921;53.256;8.198;2022-07-25T10:30:22;9.47;;;4.80;;
47161;SDS011;32921;53.256;8.198;2022-07-25T10:32:59;6.47;;;4.88;;
47161;SDS011;32921;53.256;8.198;2022-07-25T10:35:27;8.50;;;5.22;;
47161;SDS011;32921;53.256;8.198;2022-07-25T10:37:54;10.40;;;5.40;;
47161;SDS011;32921;53.256;8.198;2022-07-25T10:40:28;8.52;;;4.93;;
47161;SDS011;32921;53.256;8.198;2022-07-25T10:43:00;10.30;;;5.55;;
47161;SDS011;32921;53.256;8.198;2022-07-25T10:45:32;8.25;;;5.35;;
47161;SDS011;32921;53.256;8.198;2022-07-25T10:48:19;10.32;;;5.68;;
47161;SDS011;32921;53.256;8.198;2022-07-25T10:50:48;9.10;;;6.03;;
47161;SDS011;32921;53.256;8.198;2022-07-25T10:53:29;8.65;;;5.82;;
47161;SDS011;32921;53.256;8.198;2022-07-25T10:56:12;10.35;;;6.35;;
47161;SDS011;32921;53.256;8.198;2022-07-25T10:58:49;8.45;;;5.68;;
47161;SDS011;32921;53.256;8.198;2022-07-25T11:03:50;8.23;;;5.43;;
47161;SDS011;32921;53.256;8.198;2022-07-25T11:06:27;8.77;;;5.70;;
47161;SDS011;32921;53.256;8.198;2022-07-25T11:08:53;7.70;;;5.82;;
47161;SDS011;32921;53.256;8.198;2022-07-25T11:11:21;16.75;;;6.85;;
47161;SDS011;32921;53.256;8.198;2022-07-25T11:14:13;11.73;;;6.72;;
47161;SDS011;32921;53.256;8.198;2022-07-25T11:16:47;12.70;;;6.90;;
47161;SDS011;32921;53.256;8.198;2022-07-25T11:19:24;9.38;;;6.95;;
47161;SDS011;32921;53.256;8.198;2022-07-25T11:21:55;11.63;;;7.20;;
47161;SDS011;32921;53.256;8.198;2022-07-25T11:24:38;17.45;;;8.15;;
47161;SDS011;32921;53.256;8.198;2022-07-25T11:27:05;9.25;;;7.53;;
47161;SDS011;32921;53.256;8.198;2022-07-25T11:29:33;10.60;;;7.57;;
47161;SDS011;32921;53.256;8.198;2022-07-25T11:32:01;11.02;;;7.97;;
47161;SDS011;32921;53.256;8.198;2022-07-25T11:34:29;10.93;;;8.13;;
47161;SDS011;32921;53.256;8.198;2022-07-25T11:36:59;15.07;;;9.27;;
47161;SDS011;32921;53.256;8.198;2022-07-25T11:39:27;11.90;;;8.30;;
47161;SDS011;32921;53.256;8.198;2022-07-25T11:42:37;14.18;;;8.50;;
47161;SDS011;32921;53.256;8.198;2022-07-25T11:44:45;13.25;;;8.77;;
47161;SDS011;32921;53.256;8.198;2022-07-25T11:47:28;10.43;;;7.97;;
47161;SDS011;32921;53.256;8.198;2022-07-25T11:49:57;10.60;;;7.53;;
47161;SDS011;32921;53.256;8.198;2022-07-25T11:52:31;12.15;;;8.85;;
47161;SDS011;32921;53.256;8.198;2022-07-25T11:54:59;12.27;;;7.72;;
47161;SDS011;32921;53.256;8.198;2022-07-25T11:57:27;11.45;;;8.40;;
47161;SDS011;32921;53.256;8.198;2022-07-25T11:59:55;18.08;;;8.75;;
47161;SDS011;32921;53.256;8.198;2022-07-25T12:02:24;12.75;;;9.40;;
47161;SDS011;32921;53.256;8.198;2022-07-25T12:04:56;11.95;;;8.55;;
47161;SDS011;32921;53.256;8.198;2022-07-25T12:10:13;13.95;;;8.30;;
47161;SDS011;32921;53.256;8.198;2022-07-25T12:12:43;9.55;;;7.10;;
47161;SDS011;32921;53.256;8.198;2022-07-25T12:15:12;12.00;;;7.07;;
47161;SDS011;32921;53.256;8.198;2022-07-25T12:17:39;11.52;;;6.03;;
47161;SDS011;32921;53.256;8.198;2022-07-25T12:20:09;9.65;;;5.43;;
47161;SDS011;32921;53.256;8.198;2022-07-25T12:22:43;10.15;;;5.38;;
47161;SDS011;32921;53.256;8.198;2022-07-25T12:25:09;8.45;;;4.40;;
47161;SDS011;32921;53.256;8.198;2022-07-25T12:27:36;8.38;;;4.72;;
47161;SDS011;32921;53.256;8.198;2022-07-25T12:30:02;7.45;;;4.15;;
47161;SDS011;32921;53.256;8.198;2022-07-25T12:32:29;6.57;;;3.88;;
47161;SDS011;32921;53.256;8.198;2022-07-25T12:34:54;9.20;;;3.78;;
47161;SDS011;32921;53.256;8.198;2022-07-25T12:37:20;6.70;;;3.90;;
47161;SDS011;32921;53.256;8.198;2022-07-25T12:39:45;11.27;;;4.40;;
47161;SDS011;32921;53.256;8.198;2022-07-25T12:42:11;5.80;;;3.80;;
47161;SDS011;32921;53.256;8.198;2022-07-25T12:44:37;6.72;;;3.97;;
47161;SDS011;32921;53.256;8.198;2022-07-25T12:47:02;5.70;;;3.90;;
47161;SDS011;32921;53.256;8.198;2022-07-25T12:49:28;8.63;;;4.00;;
47161;SDS011;32921;53.256;8.198;2022-07-25T12:51:54;7.18;;;4.20;;
47161;SDS011;32921;53.256;8.198;2022-07-25T12:54:19;9.27;;;4.53;;
47161;SDS011;32921;53.256;8.198;2022-07-25T12:56:45;7.55;;;4.50;;
47161;SDS011;32921;53.256;8.198;2022-07-25T12:59:11;9.20;;;4.22;;
47161;SDS011;32921;53.256;8.198;2022-07-25T13:01:36;8.48;;;4.70;;
47161;SDS011;32921;53.256;8.198;2022-07-25T13:04:02;8.95;;;4.50;;
47161;SDS011;32921;53.256;8.198;2022-07-25T13:06:31;10.40;;;5.03;;
47161;SDS011;32921;53.256;8.198;2022-07-25T13:08:57;7.32;;;5.13;;
47161;SDS011;32921;53.256;8.198;2022-07-25T13:11:23;7.28;;;4.22;;
47161;SDS011;32921;53.256;8.198;2022-07-25T13:13:48;11.68;;;5.22;;
47161;SDS011;32921;53.256;8.198;2022-07-25T13:16:14;8.63;;;5.60;;
47161;SDS011;32921;53.256;8.198;2022-07-25T13:18:39;10.57;;;5.70;;
47161;SDS011;32921;53.256;8.198;2022-07-25T13:21:05;15.13;;;6.97;;
47161;SDS011;32921;53.256;8.198;2022-07-25T13:23:31;11.82;;;6.50;;
47161;SDS011;32921;53.256;8.198;2022-07-25T13:25:56;10.57;;;6.43;;
47161;SDS011;32921;53.256;8.198;2022-07-25T13:28:24;9.43;;;6.97;;
47161;SDS011;32921;53.256;8.198;2022-07-25T13:30:50;10.70;;;6.22;;
47161;SDS011;32921;53.256;8.198;2022-07-25T13:33:15;10.10;;;7.20;;
47161;SDS011;32921;53.256;8.198;2022-07-25T13:35:41;13.00;;;6.57;;
47161;SDS011;32921;53.256;8.198;2022-07-25T13:38:10;11.02;;;6.78;;
47161;SDS011;32921;53.256;8.198;2022-07-25T13:40:36;11.45;;;6.07;;
47161;SDS011;32921;53.256;8.198;2022-07-25T13:43:06;9.68;;;5.53;;
47161;SDS011;32921;53.256;8.198;2022-07-25T13:45:36;9.52;;;5.20;;
47161;SDS011;32921;53.256;8.198;2022-07-25T13:48:02;8.50;;;5.75;;
47161;SDS011;32921;53.256;8.198;2022-07-25T13:50:28;7.72;;;4.80;;
47161;SDS011;32921;53.256;8.198;2022-07-25T13:52:54;8.43;;;4.72;;
47161;SDS011;32921;53.256;8.198;2022-07-25T13:55:25;6.93;;;4.68;;
47161;SDS011;32921;53.256;8.198;2022-07-25T13:57:51;7.03;;;4.72;;
47161;SDS011;32921;53.256;8.198;2022-07-25T14:00:16;6.97;;;4.43;;
47161;SDS011;32921;53.256;8.198;2022-07-25T14:02:42;7.32;;;3.88;;
47161;SDS011;32921;53.256;8.198;2022-07-25T14:05:08;6.75;;;3.90;;
47161;SDS011;32921;53.256;8.198;2022-07-25T14:07:34;5.35;;;3.35;;
47161;SDS011;32921;53.256;8.198;2022-07-25T14:10:00;6.50;;;3.35;;
47161;SDS011;32921;53.256;8.198;2022-07-25T14:12:26;4.07;;;2.78;;
47161;SDS011;32921;53.256;8.198;2022-07-25T14:14:52;6.40;;;3.13;;
47161;SDS011;32921;53.256;8.198;2022-07-25T14:17:18;4.15;;;2.53;;
47161;SDS011;32921;53.256;8.198;2022-07-25T14:19:43;5.35;;;2.70;;
47161;SDS011;32921;53.256;8.198;2022-07-25T14:22:09;5.55;;;2.63;;
47161;SDS011;32921;53.256;8.198;2022-07-25T14:24:34;5.30;;;2.53;;
47161;SDS011;32921;53.256;8.198;2022-07-25T14:27:00;7.85;;;2.80;;
47161;SDS011;32921;53.256;8.198;2022-07-25T14:29:26;4.50;;;2.58;;
47161;SDS011;32921;53.256;8.198;2022-07-25T14:31:52;6.30;;;2.60;;
47161;SDS011;32921;53.256;8.198;2022-07-25T14:34:17;5.60;;;2.70;;
47161;SDS011;32921;53.256;8.198;2022-07-25T14:36:43;4.80;;;2.55;;
47161;SDS011;32921;53.256;8.198;2022-07-25T14:39:11;6.25;;;2.40;;
47161;SDS011;32921;53.256;8.198;2022-07-25T14:41:38;3.70;;;2.15;;
47161;SDS011;32921;53.256;8.198;2022-07-25T14:44:04;6.13;;;2.45;;
47161;SDS011;32921;53.256;8.198;2022-07-25T14:46:29;9.93;;;2.15;;
47161;SDS011;32921;53.256;8.198;2022-07-25T14:48:55;5.65;;;2.20;;